createdAt,value
2018-12-31T00:00:01.275Z,92.80
2018-12-31T00:02:31.146Z,92.80
2018-12-31T00:04:59.577Z,92.80
2018-12-31T00:07:27.979Z,92.90
2018-12-31T00:09:56.372Z,92.90
2018-12-31T00:12:24.785Z,92.90
2018-12-31T00:14:53.193Z,92.90
2018-12-31T00:17:21.593Z,92.90
2018-12-31T00:19:49.992Z,92.90
2018-12-31T00:22:18.400Z,93.00
2018-12-31T00:24:46.796Z,93.10
2018-12-31T00:27:15.208Z,92.90
2018-12-31T00:29:43.594Z,93.20
2018-12-31T00:32:12.029Z,93.20
2018-12-31T00:34:40.424Z,93.20
2018-12-31T00:37:08.836Z,93.20
2018-12-31T00:42:05.330Z,93.30
2018-12-31T00:44:33.734Z,93.30
2018-12-31T00:47:02.143Z,93.10
2018-12-31T00:49:30.541Z,93.20
2018-12-31T00:51:58.944Z,93.10
2018-12-31T00:54:27.428Z,93.10
2018-12-31T00:56:55.828Z,93.10
2018-12-31T00:59:24.240Z,93.30
2018-12-31T01:01:52.628Z,93.30
2018-12-31T01:04:21.041Z,93.30
2018-12-31T01:06:49.436Z,93.40
2018-12-31T01:09:17.852Z,93.30
2018-12-31T01:11:46.244Z,93.30
2018-12-31T01:16:42.732Z,93.10
2018-12-31T01:19:11.146Z,93.20
2018-12-31T01:24:07.625Z,93.30
2018-12-31T01:29:04.108Z,93.40
2018-12-31T01:31:32.516Z,93.30
2018-12-31T01:34:00.945Z,93.50
2018-12-31T01:36:29.349Z,93.60
2018-12-31T01:38:57.756Z,93.50
2018-12-31T01:41:26.160Z,93.40
2018-12-31T01:43:54.560Z,93.40
2018-12-31T01:46:22.973Z,93.60
2018-12-31T01:48:51.384Z,93.50
2018-12-31T01:51:19.784Z,93.50
2018-12-31T01:53:48.184Z,93.50
2018-12-31T01:56:16.592Z,93.40
2018-12-31T01:58:44.988Z,93.30
2018-12-31T02:01:13.394Z,93.20
2018-12-31T02:03:41.798Z,93.20
2018-12-31T02:06:10.202Z,93.10
2018-12-31T02:11:06.684Z,93.00
2018-12-31T02:13:35.077Z,93.10
2018-12-31T02:16:03.560Z,93.10
2018-12-31T02:18:31.969Z,93.00
2018-12-31T02:21:00.376Z,93.00
2018-12-31T02:23:28.772Z,93.00
2018-12-31T02:25:57.206Z,92.90
2018-12-31T02:28:25.606Z,93.10
2018-12-31T02:30:54.012Z,93.00
2018-12-31T02:33:22.417Z,93.10
2018-12-31T02:35:50.816Z,93.20
2018-12-31T02:38:19.218Z,93.10
2018-12-31T02:40:47.612Z,93.20
2018-12-31T02:43:16.008Z,93.20
2018-12-31T02:45:44.418Z,93.20
2018-12-31T02:48:12.812Z,93.30
2018-12-31T02:50:41.229Z,93.30
2018-12-31T02:53:09.643Z,93.40
2018-12-31T02:55:38.033Z,93.40
2018-12-31T02:58:06.432Z,93.40
2018-12-31T03:00:34.870Z,93.40
2018-12-31T03:03:03.325Z,93.40
2018-12-31T03:05:31.722Z,93.30
2018-12-31T03:10:28.218Z,93.40
2018-12-31T03:12:56.636Z,93.40
2018-12-31T03:15:25.029Z,93.30
2018-12-31T03:17:53.437Z,93.40
2018-12-31T03:20:21.831Z,93.30
2018-12-31T03:25:18.308Z,93.30
2018-12-31T03:27:46.704Z,93.40
2018-12-31T03:30:15.100Z,93.30
2018-12-31T03:42:35.817Z,93.30
2018-12-31T03:45:04.989Z,93.30
2018-12-31T03:47:33.396Z,93.40
2018-12-31T03:50:01.801Z,93.40
2018-12-31T03:52:30.195Z,93.30
2018-12-31T03:54:58.711Z,93.30
2018-12-31T03:57:27.109Z,93.30
2018-12-31T03:59:55.512Z,93.40
2018-12-31T04:02:23.918Z,93.40
2018-12-31T04:04:52.321Z,93.40
2018-12-31T04:07:20.715Z,93.50
2018-12-31T04:09:49.130Z,93.50
2018-12-31T04:12:17.541Z,93.60
2018-12-31T04:17:14.025Z,93.30
2018-12-31T04:22:10.513Z,93.30
2018-12-31T04:24:38.916Z,93.50
2018-12-31T04:27:07.321Z,93.40
2018-12-31T04:29:35.716Z,93.50
2018-12-31T04:32:04.123Z,93.40
2018-12-31T04:34:32.799Z,93.50
2018-12-31T04:37:01.208Z,93.40
2018-12-31T04:39:29.611Z,93.40
2018-12-31T04:41:58.024Z,93.50
2018-12-31T04:44:26.452Z,93.50
2018-12-31T04:46:54.836Z,93.40
2018-12-31T04:49:23.251Z,93.50
2018-12-31T04:51:51.649Z,93.40
2018-12-31T04:54:20.056Z,93.50
2018-12-31T04:59:16.533Z,93.50
2018-12-31T05:01:44.941Z,93.50
2018-12-31T05:04:13.353Z,93.60
2018-12-31T05:06:41.744Z,93.50
2018-12-31T05:09:10.154Z,93.60
2018-12-31T05:11:38.549Z,93.60
2018-12-31T05:14:06.952Z,93.80
2018-12-31T05:16:35.348Z,93.60
2018-12-31T05:21:31.824Z,93.70
2018-12-31T05:24:00.228Z,93.60
2018-12-31T05:26:28.619Z,93.60
2018-12-31T05:28:57.025Z,93.60
2018-12-31T05:31:25.417Z,93.70
2018-12-31T05:33:53.820Z,93.60
2018-12-31T05:36:22.229Z,93.50
2018-12-31T05:38:50.636Z,93.60
2018-12-31T05:41:19.054Z,93.50
2018-12-31T05:43:47.474Z,93.50
2018-12-31T05:46:15.867Z,93.60
2018-12-31T05:48:44.274Z,93.60
2018-12-31T05:51:32.021Z,93.60
2018-12-31T05:54:00.425Z,93.60
2018-12-31T05:59:16.245Z,93.60
2018-12-31T06:01:44.657Z,93.60
2018-12-31T06:04:13.064Z,93.60
2018-12-31T06:06:41.462Z,93.50
2018-12-31T06:09:09.869Z,93.40
2018-12-31T06:11:38.260Z,93.40
2018-12-31T06:14:06.683Z,93.40
2018-12-31T06:16:35.075Z,93.30
2018-12-31T06:19:03.485Z,93.40
2018-12-31T06:21:31.953Z,93.30
2018-12-31T06:24:00.340Z,93.30
2018-12-31T06:26:28.776Z,93.30
2018-12-31T06:28:57.173Z,93.40
2018-12-31T06:31:25.580Z,93.30
2018-12-31T06:33:53.981Z,93.30
2018-12-31T06:36:22.399Z,93.40
2018-12-31T06:38:50.793Z,93.30
2018-12-31T06:41:19.202Z,93.30
2018-12-31T06:43:47.592Z,93.40
2018-12-31T06:46:15.995Z,93.30
2018-12-31T06:48:44.405Z,93.30
2018-12-31T06:51:12.812Z,93.30
2018-12-31T06:53:41.216Z,93.40
2018-12-31T06:56:09.632Z,93.20
2018-12-31T06:58:38.120Z,93.20
2018-12-31T07:01:06.524Z,93.30
2018-12-31T07:06:03.004Z,93.30
2018-12-31T07:08:31.401Z,93.40
2018-12-31T07:10:59.804Z,93.40
2018-12-31T07:15:58.178Z,93.30
2018-12-31T07:18:26.572Z,93.40
2018-12-31T07:20:54.985Z,93.30
2018-12-31T07:23:23.444Z,93.30
2018-12-31T07:25:51.849Z,93.30
2018-12-31T07:28:20.258Z,93.40
2018-12-31T07:30:48.668Z,93.30
2018-12-31T07:33:17.064Z,93.40
2018-12-31T07:38:13.542Z,93.30
2018-12-31T07:48:06.453Z,93.30
2018-12-31T07:50:34.889Z,93.20
2018-12-31T07:53:03.284Z,93.30
2018-12-31T07:55:31.675Z,93.20
2018-12-31T07:58:00.245Z,93.20
2018-12-31T08:00:28.631Z,93.20
2018-12-31T08:02:57.035Z,93.10
2018-12-31T08:05:25.444Z,93.10
2018-12-31T08:07:53.853Z,93.10
2018-12-31T08:10:22.248Z,93.10
2018-12-31T08:12:50.657Z,93.10
2018-12-31T08:17:47.146Z,93.10
2018-12-31T08:20:15.542Z,93.00
2018-12-31T08:22:43.947Z,93.10
2018-12-31T08:25:12.348Z,93.10
2018-12-31T08:27:40.761Z,93.10
2018-12-31T08:30:09.245Z,93.00
2018-12-31T08:32:37.651Z,92.90
2018-12-31T08:35:06.116Z,92.90
2018-12-31T08:37:34.532Z,92.90
2018-12-31T08:40:03.134Z,92.90
2018-12-31T08:42:41.287Z,92.80
2018-12-31T08:45:09.768Z,92.70
2018-12-31T08:47:39.888Z,92.70
2018-12-31T08:52:36.520Z,92.70
2018-12-31T08:55:05.258Z,92.70
2018-12-31T08:57:33.661Z,92.60
2018-12-31T09:00:02.213Z,92.60
2018-12-31T09:04:58.689Z,92.60
2018-12-31T09:07:27.119Z,92.60
2018-12-31T09:09:55.509Z,92.60
2018-12-31T09:12:23.921Z,92.60
2018-12-31T09:17:20.402Z,92.60
2018-12-31T09:19:48.807Z,92.60
2018-12-31T09:22:17.217Z,92.60
2018-12-31T09:24:45.612Z,92.60
2018-12-31T09:27:14.021Z,92.50
2018-12-31T09:29:42.436Z,92.50
2018-12-31T09:32:10.827Z,92.60
2018-12-31T09:34:39.232Z,92.60
2018-12-31T09:37:07.636Z,92.50
2018-12-31T09:39:55.471Z,92.50
2018-12-31T09:42:23.876Z,92.40
2018-12-31T09:44:52.286Z,92.40
2018-12-31T09:47:20.688Z,92.40
2018-12-31T09:49:49.109Z,92.30
2018-12-31T09:54:45.597Z,92.50
2018-12-31T09:57:13.992Z,92.50
2018-12-31T09:59:42.413Z,92.50
2018-12-31T10:02:10.814Z,92.60
2018-12-31T10:04:39.226Z,92.60
2018-12-31T10:09:35.708Z,92.40
2018-12-31T10:17:00.436Z,92.40
2018-12-31T10:19:28.864Z,92.30
2018-12-31T10:21:57.264Z,92.50
2018-12-31T10:24:25.676Z,92.60
2018-12-31T10:26:54.077Z,92.60
2018-12-31T10:29:22.481Z,92.50
2018-12-31T10:31:50.881Z,92.50
2018-12-31T10:34:19.293Z,92.40
2018-12-31T10:36:47.692Z,92.60
2018-12-31T10:39:16.105Z,92.50
2018-12-31T10:41:44.480Z,92.70
2018-12-31T10:46:40.980Z,92.70
2018-12-31T10:49:09.374Z,92.80
2018-12-31T10:51:37.776Z,93.00
2018-12-31T10:54:06.186Z,93.00
2018-12-31T10:59:02.744Z,92.90
2018-12-31T11:01:31.160Z,92.90
2018-12-31T11:03:59.556Z,93.00
2018-12-31T11:06:27.960Z,93.00
2018-12-31T11:11:24.459Z,92.90
2018-12-31T11:13:52.847Z,92.90
2018-12-31T11:16:21.287Z,92.70
2018-12-31T11:18:49.697Z,92.90
2018-12-31T11:21:18.132Z,92.90
2018-12-31T11:23:46.520Z,92.90
2018-12-31T11:26:14.936Z,92.90
2018-12-31T11:28:43.343Z,92.90
2018-12-31T11:33:39.816Z,93.00
2018-12-31T11:36:08.240Z,93.00
2018-12-31T11:38:36.640Z,93.00
2018-12-31T11:41:05.048Z,93.00
2018-12-31T11:43:33.434Z,93.10
2018-12-31T11:46:01.845Z,93.10
2018-12-31T11:48:30.247Z,93.10
2018-12-31T11:53:26.953Z,93.20
2018-12-31T11:55:55.546Z,93.00
2018-12-31T11:58:23.957Z,93.10
2018-12-31T12:03:20.525Z,93.10
2018-12-31T12:05:48.964Z,93.10
2018-12-31T12:08:17.373Z,93.20
2018-12-31T12:10:45.772Z,93.10
2018-12-31T12:15:42.725Z,93.20
2018-12-31T12:18:11.129Z,93.30
2018-12-31T12:20:39.537Z,93.20
2018-12-31T12:23:07.952Z,93.20
2018-12-31T12:25:36.362Z,93.20
2018-12-31T12:30:33.817Z,93.30
2018-12-31T12:33:02.239Z,93.50
2018-12-31T12:35:30.696Z,93.40
2018-12-31T12:37:59.108Z,93.60
2018-12-31T12:40:27.504Z,93.70
2018-12-31T12:42:55.916Z,93.60
2018-12-31T12:47:52.404Z,93.50
2018-12-31T12:52:49.004Z,93.80
2018-12-31T12:55:17.400Z,93.70
2018-12-31T12:57:45.814Z,93.70
2018-12-31T13:00:14.213Z,93.70
2018-12-31T13:02:42.632Z,93.90
2018-12-31T13:05:11.027Z,93.80
2018-12-31T13:07:39.714Z,93.80
2018-12-31T13:10:08.180Z,93.90
2018-12-31T13:12:36.585Z,93.90
2018-12-31T13:17:33.829Z,93.80
2018-12-31T13:20:02.524Z,93.90
2018-12-31T13:22:30.931Z,94.00
2018-12-31T13:24:59.328Z,94.00
2018-12-31T13:27:27.748Z,94.00
2018-12-31T13:29:56.146Z,94.00
2018-12-31T13:32:24.922Z,93.90
2018-12-31T13:34:53.320Z,94.00
2018-12-31T13:37:21.733Z,94.00
2018-12-31T13:39:50.325Z,93.90
2018-12-31T13:42:20.398Z,93.90
2018-12-31T13:44:48.862Z,94.10
2018-12-31T13:47:17.256Z,94.10
2018-12-31T13:49:45.676Z,94.30
2018-12-31T13:52:14.081Z,94.20
2018-12-31T13:54:42.477Z,94.30
2018-12-31T13:57:10.924Z,94.30
2018-12-31T14:02:26.829Z,94.40
2018-12-31T14:04:55.240Z,94.50
2018-12-31T14:07:24.012Z,94.40
2018-12-31T14:09:52.426Z,94.70
2018-12-31T14:12:20.820Z,94.80
2018-12-31T14:14:49.226Z,94.60
2018-12-31T14:17:17.629Z,94.70
2018-12-31T14:22:14.708Z,94.80
2018-12-31T14:24:43.112Z,94.90
2018-12-31T14:27:11.510Z,94.90
2018-12-31T14:29:44.225Z,94.80
2018-12-31T14:32:13.231Z,94.90
2018-12-31T14:34:41.660Z,94.90
2018-12-31T14:37:10.120Z,94.90
2018-12-31T14:39:38.536Z,95.00
2018-12-31T14:42:06.948Z,95.00
2018-12-31T14:44:35.738Z,95.20
2018-12-31T14:47:04.135Z,95.20
2018-12-31T14:49:32.533Z,95.00
2018-12-31T14:52:00.940Z,95.20
2018-12-31T14:54:29.348Z,95.10
2018-12-31T14:56:57.756Z,95.10
2018-12-31T14:59:26.169Z,95.00
2018-12-31T15:01:54.560Z,95.20
2018-12-31T15:04:22.965Z,95.20
2018-12-31T15:06:51.417Z,95.20
2018-12-31T15:09:19.889Z,95.20
2018-12-31T15:11:48.287Z,95.30
2018-12-31T15:14:16.693Z,95.40
2018-12-31T15:16:45.167Z,95.30
2018-12-31T15:19:13.560Z,95.20
2018-12-31T15:21:41.976Z,95.20
2018-12-31T15:24:10.748Z,95.10
2018-12-31T15:26:39.151Z,95.10
2018-12-31T15:29:07.544Z,95.20
2018-12-31T15:31:35.955Z,95.20
2018-12-31T15:34:04.354Z,95.20
2018-12-31T15:36:33.341Z,95.20
2018-12-31T15:39:01.732Z,95.10
2018-12-31T15:41:30.140Z,95.10
2018-12-31T15:43:58.539Z,95.10
2018-12-31T15:46:26.962Z,95.00
2018-12-31T15:51:23.461Z,95.20
2018-12-31T15:53:51.861Z,95.10
2018-12-31T15:56:20.264Z,95.30
2018-12-31T16:01:16.740Z,95.30
2018-12-31T16:03:45.136Z,95.30
2018-12-31T16:06:13.544Z,95.20
2018-12-31T16:08:41.939Z,95.20
2018-12-31T16:11:10.345Z,95.20
2018-12-31T16:13:38.757Z,95.20
2018-12-31T16:16:07.517Z,95.30
2018-12-31T16:18:35.997Z,95.20
2018-12-31T16:23:34.202Z,95.40
2018-12-31T16:26:02.886Z,95.40
2018-12-31T16:28:31.764Z,95.50
2018-12-31T16:31:00.180Z,95.40
2018-12-31T16:33:28.589Z,95.50
2018-12-31T16:35:56.985Z,95.40
2018-12-31T16:38:25.388Z,95.30
2018-12-31T16:40:54.929Z,95.30
2018-12-31T16:43:23.477Z,95.40
2018-12-31T16:45:52.176Z,95.40
2018-12-31T16:48:20.572Z,95.40
2018-12-31T16:50:48.964Z,95.40
2018-12-31T16:53:17.387Z,95.30
2018-12-31T16:55:45.856Z,95.30
2018-12-31T16:58:14.265Z,95.30
2018-12-31T17:00:42.665Z,95.30
2018-12-31T17:03:11.084Z,95.30
2018-12-31T17:08:08.061Z,95.10
2018-12-31T17:10:36.577Z,95.00
2018-12-31T17:13:24.337Z,95.10
2018-12-31T17:15:52.792Z,95.10
2018-12-31T17:18:21.585Z,95.20
2018-12-31T17:20:49.981Z,95.20
2018-12-31T17:23:18.405Z,95.30
2018-12-31T17:25:46.789Z,95.20
2018-12-31T17:28:15.203Z,95.20
2018-12-31T17:30:43.973Z,95.20
2018-12-31T17:33:12.380Z,95.20
2018-12-31T17:35:40.808Z,95.10
2018-12-31T17:38:09.217Z,95.20
2018-12-31T17:43:05.762Z,95.20
2018-12-31T17:48:02.264Z,95.20
2018-12-31T17:50:30.659Z,95.10
2018-12-31T17:52:59.059Z,95.10
2018-12-31T17:55:27.564Z,95.20
2018-12-31T17:57:56.239Z,95.20
2018-12-31T18:02:52.885Z,95.00
2018-12-31T18:05:21.316Z,95.00
2018-12-31T18:07:49.728Z,94.90
2018-12-31T18:10:18.628Z,95.00
2018-12-31T18:13:06.368Z,95.00
2018-12-31T18:15:34.768Z,95.10
2018-12-31T18:18:03.164Z,94.90
2018-12-31T18:23:00.025Z,94.90
2018-12-31T18:27:56.505Z,95.10
2018-12-31T18:32:52.984Z,95.10
2018-12-31T18:35:21.525Z,95.20
2018-12-31T18:37:50.121Z,95.10
2018-12-31T18:40:18.531Z,95.10
2018-12-31T18:47:43.184Z,95.00
2018-12-31T18:50:11.681Z,95.20
2018-12-31T18:52:40.087Z,95.20
2018-12-31T18:55:08.501Z,95.30
2018-12-31T18:57:36.910Z,95.20
2018-12-31T19:00:07.696Z,95.00
2018-12-31T19:02:36.094Z,95.10
2018-12-31T19:05:04.768Z,95.10
2018-12-31T19:07:33.166Z,95.00
2018-12-31T19:10:01.573Z,95.10
2018-12-31T19:12:30.445Z,95.10
2018-12-31T19:14:58.854Z,95.10
2018-12-31T19:17:27.252Z,95.10
2018-12-31T19:22:23.736Z,95.20
2018-12-31T19:24:52.183Z,95.20
2018-12-31T19:27:20.581Z,95.30
2018-12-31T19:29:48.982Z,95.30
2018-12-31T19:34:45.471Z,95.00
2018-12-31T19:37:13.887Z,95.00
2018-12-31T19:39:42.778Z,95.00
2018-12-31T19:42:11.180Z,95.10
2018-12-31T19:44:39.579Z,95.10
2018-12-31T19:47:08.002Z,95.10
2018-12-31T19:49:36.404Z,95.20
2018-12-31T19:52:04.884Z,95.00
2018-12-31T19:54:33.281Z,94.90
2018-12-31T19:59:29.768Z,95.00
2018-12-31T20:04:26.264Z,95.00
2018-12-31T20:07:01.191Z,95.00
2018-12-31T20:09:25.181Z,95.10
2018-12-31T20:11:53.593Z,95.00
2018-12-31T20:14:22.007Z,95.00
2018-12-31T20:16:50.423Z,95.00
2018-12-31T20:19:19.297Z,95.00
2018-12-31T20:21:47.708Z,94.90
2018-12-31T20:24:16.104Z,95.00
2018-12-31T20:26:44.516Z,95.00
2018-12-31T20:29:12.921Z,95.10
2018-12-31T20:31:41.328Z,95.00
2018-12-31T20:34:10.009Z,95.10
2018-12-31T20:36:38.696Z,95.10
2018-12-31T20:39:07.160Z,94.90
2018-12-31T20:41:35.560Z,95.00
2018-12-31T20:46:32.220Z,94.80
2018-12-31T20:49:00.623Z,94.90
2018-12-31T20:53:57.107Z,94.90
2018-12-31T20:56:25.506Z,94.90
2018-12-31T20:58:53.917Z,94.80
2018-12-31T21:06:18.601Z,94.80
2018-12-31T21:08:47.012Z,94.80
2018-12-31T21:11:15.417Z,94.90
2018-12-31T21:13:43.881Z,94.90
2018-12-31T21:16:12.452Z,94.90
2018-12-31T21:18:40.855Z,95.00
2018-12-31T21:21:09.260Z,94.80
2018-12-31T21:23:37.764Z,94.80
2018-12-31T21:26:06.165Z,94.80
2018-12-31T21:28:34.660Z,94.80
2018-12-31T21:31:03.053Z,94.90
2018-12-31T21:36:00.376Z,94.70
2018-12-31T21:38:28.780Z,94.80
2018-12-31T21:40:57.189Z,94.80
2018-12-31T21:43:25.605Z,94.80
2018-12-31T21:45:54.001Z,94.70
2018-12-31T21:48:22.400Z,94.70
2018-12-31T21:53:18.954Z,94.70
2018-12-31T21:55:47.351Z,94.70
2018-12-31T21:58:15.776Z,94.70
2018-12-31T22:00:44.164Z,94.50
2018-12-31T22:03:12.569Z,94.50
2018-12-31T22:08:09.062Z,94.80
2018-12-31T22:10:37.729Z,94.70
2018-12-31T22:13:06.144Z,94.70
2018-12-31T22:15:34.537Z,94.50
2018-12-31T22:18:02.968Z,94.50
2018-12-31T22:22:59.452Z,94.70
2018-12-31T22:28:09.044Z,94.70
2018-12-31T22:30:37.453Z,94.40
2018-12-31T22:33:05.869Z,94.50
2018-12-31T22:35:34.273Z,94.60
2018-12-31T22:38:02.672Z,94.50
2018-12-31T22:42:59.164Z,94.60
2018-12-31T22:47:55.939Z,94.60
2018-12-31T22:55:20.704Z,94.80
2018-12-31T22:57:49.096Z,94.90
2018-12-31T23:02:45.614Z,94.80
2018-12-31T23:07:42.135Z,94.80
2018-12-31T23:10:10.629Z,94.80
2018-12-31T23:15:13.020Z,94.70
2018-12-31T23:22:38.700Z,94.80
2018-12-31T23:27:35.199Z,94.70
2018-12-31T23:30:04.687Z,94.60
2018-12-31T23:35:01.197Z,94.70
2018-12-31T23:37:29.612Z,94.60
2018-12-31T23:39:58.512Z,94.50
2018-12-31T23:44:55.292Z,94.60
2018-12-31T23:47:23.700Z,94.60
2018-12-31T23:49:52.124Z,94.60
2018-12-31T23:54:48.625Z,94.50
2018-12-31T23:57:17.604Z,94.60
2018-12-31T23:59:46.007Z,94.50
